createdAt,value
2019-05-25T00:01:42.071Z,15.27
2019-05-25T00:04:13.667Z,15.21
2019-05-25T00:06:45.755Z,15.15
2019-05-25T00:09:18.502Z,15.13
2019-05-25T00:11:50.361Z,15.11
2019-05-25T00:14:23.305Z,15.02
2019-05-25T00:16:55.807Z,14.87
2019-05-25T00:19:28.472Z,14.81
2019-05-25T00:22:01.023Z,14.75
2019-05-25T00:24:33.870Z,14.73
2019-05-25T00:27:06.449Z,14.71
2019-05-25T00:29:38.408Z,14.69
2019-05-25T00:32:10.623Z,14.69
2019-05-25T00:34:56.062Z,14.62
2019-05-25T00:37:27.946Z,14.60
2019-05-25T00:40:01.745Z,14.55
2019-05-25T00:42:36.580Z,14.53
2019-05-25T00:45:08.521Z,14.54
2019-05-25T00:47:40.939Z,14.61
2019-05-25T00:50:13.588Z,14.57
2019-05-25T00:52:45.973Z,14.60
2019-05-25T00:55:17.984Z,14.64
2019-05-25T00:57:49.589Z,14.64
2019-05-25T01:00:23.029Z,14.67
2019-05-25T01:02:55.024Z,14.69
2019-05-25T01:05:26.690Z,14.65
2019-05-25T01:07:59.128Z,14.69
2019-05-25T01:10:36.147Z,14.70
2019-05-25T01:13:08.577Z,14.70
2019-05-25T01:15:40.922Z,14.67
2019-05-25T01:18:12.391Z,14.69
2019-05-25T01:20:45.043Z,14.65
2019-05-25T01:23:17.564Z,14.61
2019-05-25T01:25:50.125Z,14.60
2019-05-25T01:28:22.278Z,14.54
2019-05-25T01:30:54.543Z,14.60
2019-05-25T01:33:27.250Z,14.58
2019-05-25T01:35:59.924Z,14.55
2019-05-25T01:38:32.089Z,14.53
2019-05-25T01:41:04.177Z,14.46
2019-05-25T01:43:35.706Z,14.52
2019-05-25T01:46:07.953Z,14.55
2019-05-25T01:48:40.397Z,14.59
2019-05-25T01:51:12.078Z,14.61
2019-05-25T01:53:44.757Z,14.60
2019-05-25T01:56:16.889Z,14.63
2019-05-25T01:58:49.167Z,14.62
2019-05-25T02:01:21.315Z,14.59
2019-05-25T02:03:52.921Z,14.57
2019-05-25T02:06:25.533Z,14.56
2019-05-25T02:08:57.963Z,14.46
2019-05-25T02:11:30.450Z,14.41
2019-05-25T02:14:02.910Z,14.42
2019-05-25T02:16:34.424Z,14.36
2019-05-25T02:19:07.010Z,14.32
2019-05-25T02:21:39.597Z,14.28
2019-05-25T02:24:11.303Z,14.28
2019-05-25T02:26:43.830Z,14.29
2019-05-25T02:29:15.499Z,14.30
2019-05-25T02:31:47.467Z,14.21
2019-05-25T02:34:19.526Z,14.20
2019-05-25T02:36:52.303Z,14.15
2019-05-25T02:39:24.828Z,14.17
2019-05-25T02:41:57.294Z,14.09
2019-05-25T02:44:29.917Z,14.13
2019-05-25T02:47:02.590Z,14.09
2019-05-25T02:49:34.105Z,14.11
2019-05-25T02:52:06.578Z,14.05
2019-05-25T02:54:38.987Z,14.05
2019-05-25T02:57:11.356Z,14.05
2019-05-25T02:59:43.779Z,14.06
2019-05-25T03:02:15.351Z,14.07
2019-05-25T03:04:47.999Z,14.09
2019-05-25T03:07:21.616Z,14.04
2019-05-25T03:09:54.574Z,14.06
2019-05-25T03:12:27.301Z,14.05
2019-05-25T03:14:59.764Z,14.06
2019-05-25T03:17:32.306Z,14.08
2019-05-25T03:20:04.870Z,14.06
2019-05-25T03:22:37.126Z,14.08
2019-05-25T03:25:09.658Z,14.03
2019-05-25T03:27:41.914Z,14.07
2019-05-25T03:30:15.912Z,14.15
2019-05-25T03:32:48.922Z,14.13
2019-05-25T03:35:20.692Z,14.18
2019-05-25T03:37:53.401Z,14.24
2019-05-25T03:40:25.594Z,14.28
2019-05-25T03:42:57.407Z,14.27
2019-05-25T03:45:29.659Z,14.35
2019-05-25T03:48:02.016Z,14.34
2019-05-25T03:50:34.599Z,14.36
2019-05-25T03:53:07.197Z,14.32
2019-05-25T03:55:39.320Z,14.39
2019-05-25T03:58:11.886Z,14.42
2019-05-25T04:00:44.448Z,14.46
2019-05-25T04:03:17.195Z,14.50
2019-05-25T04:05:49.782Z,14.43
2019-05-25T04:08:22.950Z,14.48
2019-05-25T04:10:55.197Z,14.49
2019-05-25T04:13:27.832Z,14.55
2019-05-25T04:16:01.859Z,14.62
2019-05-25T04:18:34.511Z,14.64
2019-05-25T04:21:06.434Z,14.72
2019-05-25T04:23:38.367Z,14.74
2019-05-25T04:26:21.864Z,14.76
2019-05-25T04:28:43.984Z,14.70
2019-05-25T04:31:17.456Z,14.73
2019-05-25T04:33:49.935Z,14.80
2019-05-25T04:36:22.200Z,14.80
2019-05-25T04:38:54.436Z,14.92
2019-05-25T04:41:26.135Z,14.95
2019-05-25T04:43:58.551Z,15.04
2019-05-25T04:46:30.976Z,15.15
2019-05-25T04:49:05.519Z,15.17
2019-05-25T04:51:37.876Z,15.24
2019-05-25T04:54:10.217Z,15.36
2019-05-25T04:56:42.301Z,15.24
2019-05-25T04:59:14.704Z,15.31
2019-05-25T05:01:46.840Z,15.37
2019-05-25T05:04:36.205Z,15.48
2019-05-25T05:07:08.295Z,15.66
2019-05-25T05:09:39.933Z,15.75
2019-05-25T05:12:12.097Z,15.50
2019-05-25T05:14:56.486Z,15.69
2019-05-25T05:17:28.742Z,15.81
2019-05-25T05:20:01.129Z,16.04
2019-05-25T05:22:32.746Z,16.09
2019-05-25T05:25:16.402Z,16.03
2019-05-25T05:27:48.799Z,16.12
2019-05-25T05:30:24.430Z,16.15
2019-05-25T05:32:56.942Z,16.22
2019-05-25T05:35:29.829Z,16.43
2019-05-25T05:38:06.851Z,16.34
2019-05-25T05:40:42.806Z,16.18
2019-05-25T05:43:16.976Z,16.31
2019-05-25T05:45:51.304Z,16.46
2019-05-25T05:48:26.535Z,16.33
2019-05-25T05:51:01.035Z,16.50
2019-05-25T05:53:37.049Z,16.41
2019-05-25T05:56:08.508Z,16.40
2019-05-25T05:58:44.150Z,16.44
2019-05-25T06:01:16.232Z,16.57
2019-05-25T06:03:48.133Z,16.70
2019-05-25T06:06:20.563Z,16.86
2019-05-25T06:09:53.040Z,16.97
2019-05-25T06:12:25.266Z,17.09
2019-05-25T06:15:02.501Z,17.23
2019-05-25T06:17:35.108Z,17.04
2019-05-25T06:20:10.820Z,17.35
2019-05-25T06:22:43.053Z,17.36
2019-05-25T06:25:16.318Z,17.63
2019-05-25T06:27:49.157Z,17.68
2019-05-25T06:30:22.729Z,17.82
2019-05-25T06:32:54.266Z,17.88
2019-05-25T06:35:26.981Z,17.80
2019-05-25T06:37:59.424Z,17.93
2019-05-25T06:40:32.059Z,17.91
2019-05-25T06:43:06.523Z,18.02
2019-05-25T06:45:38.145Z,17.97
2019-05-25T06:48:12.148Z,17.82
2019-05-25T06:50:44.667Z,17.89
2019-05-25T06:53:16.498Z,18.01
2019-05-25T06:55:48.749Z,18.11
2019-05-25T06:58:20.959Z,17.89
2019-05-25T07:01:04.356Z,17.92
2019-05-25T07:03:57.887Z,17.96
2019-05-25T07:06:30.779Z,18.09
2019-05-25T07:09:03.723Z,18.37
2019-05-25T07:11:38.872Z,18.38
2019-05-25T07:14:10.735Z,18.50
2019-05-25T07:16:43.055Z,18.82
2019-05-25T07:19:16.818Z,18.91
2019-05-25T07:21:50.257Z,19.10
2019-05-25T07:24:29.908Z,19.29
2019-05-25T07:27:01.576Z,19.42
2019-05-25T07:29:54.018Z,19.63
2019-05-25T07:32:26.163Z,19.44
2019-05-25T07:34:58.592Z,19.39
2019-05-25T07:37:30.954Z,19.33
2019-05-25T07:40:04.779Z,19.22
2019-05-25T07:42:37.298Z,19.21
2019-05-25T07:45:21.851Z,19.28
2019-05-25T07:47:52.589Z,19.54
2019-05-25T07:50:24.984Z,19.90
2019-05-25T07:52:57.340Z,19.93
2019-05-25T07:55:31.791Z,20.06
2019-05-25T07:58:32.325Z,20.07
2019-05-25T08:01:06.772Z,20.73
2019-05-25T08:03:40.055Z,20.90
2019-05-25T08:06:18.444Z,21.42
2019-05-25T08:08:54.679Z,22.33
2019-05-25T08:11:26.349Z,22.88
2019-05-25T08:13:58.881Z,23.59
2019-05-25T08:16:30.547Z,23.99
2019-05-25T08:19:03.065Z,23.66
2019-05-25T08:21:35.356Z,23.51
2019-05-25T08:24:07.654Z,23.91
2019-05-25T08:26:40.145Z,24.12
2019-05-25T08:29:12.359Z,24.12
2019-05-25T08:31:44.827Z,24.47
2019-05-25T08:34:17.321Z,24.63
2019-05-25T08:36:49.049Z,23.69
2019-05-25T08:39:22.354Z,23.92
2019-05-25T08:41:54.865Z,22.83
2019-05-25T08:44:27.086Z,22.74
2019-05-25T08:46:59.645Z,22.71
2019-05-25T08:49:32.174Z,22.24
2019-05-25T08:52:04.368Z,23.13
2019-05-25T08:54:36.554Z,23.15
2019-05-25T08:57:08.935Z,22.99
2019-05-25T08:59:42.182Z,23.30
2019-05-25T09:02:18.148Z,23.26
2019-05-25T09:04:50.717Z,23.01
2019-05-25T09:07:23.286Z,22.69
2019-05-25T09:09:58.236Z,22.20
2019-05-25T09:12:31.121Z,21.89
2019-05-25T09:15:06.033Z,21.97
2019-05-25T09:17:41.493Z,21.92
2019-05-25T09:20:16.251Z,21.84
2019-05-25T09:22:49.385Z,21.67
2019-05-25T09:25:27.579Z,21.80
2019-05-25T09:28:00.247Z,21.94
2019-05-25T09:30:32.429Z,21.37
2019-05-25T09:33:09.391Z,21.26
2019-05-25T09:35:42.223Z,21.38
2019-05-25T09:38:14.496Z,21.22
2019-05-25T09:40:46.853Z,20.96
2019-05-25T09:43:21.924Z,20.95
2019-05-25T09:45:54.759Z,20.84
2019-05-25T09:48:27.136Z,20.75
2019-05-25T09:51:00.562Z,20.47
2019-05-25T09:53:37.455Z,20.48
2019-05-25T09:56:09.776Z,20.11
2019-05-25T09:58:44.758Z,19.94
2019-05-25T10:01:17.131Z,19.93
2019-05-25T10:03:49.180Z,19.86
2019-05-25T10:06:23.142Z,19.81
2019-05-25T10:08:57.824Z,19.59
2019-05-25T10:11:37.711Z,19.68
2019-05-25T10:14:12.232Z,19.78
2019-05-25T10:16:50.412Z,19.95
2019-05-25T10:19:23.613Z,20.11
2019-05-25T10:22:06.600Z,20.37
2019-05-25T10:24:47.047Z,21.29
2019-05-25T10:27:25.353Z,21.93
2019-05-25T10:30:07.868Z,21.85
2019-05-25T10:32:41.843Z,21.46
2019-05-25T10:35:15.824Z,21.04
2019-05-25T10:38:02.171Z,20.14
2019-05-25T10:40:50.127Z,20.41
2019-05-25T10:43:27.480Z,20.40
2019-05-25T10:46:05.263Z,20.14
2019-05-25T10:48:48.101Z,19.94
2019-05-25T10:51:33.739Z,19.38
2019-05-25T10:54:21.921Z,19.04
2019-05-25T10:57:03.868Z,18.94
2019-05-25T10:59:52.375Z,18.76
2019-05-25T11:02:27.384Z,18.75
2019-05-25T11:05:12.488Z,18.60
2019-05-25T11:07:53.396Z,18.50
2019-05-25T11:10:35.755Z,18.50
2019-05-25T11:13:11.941Z,18.51
2019-05-25T11:15:55.711Z,18.52
2019-05-25T11:18:33.035Z,18.59
2019-05-25T11:21:11.369Z,18.61
2019-05-25T11:23:47.576Z,18.53
2019-05-25T11:26:19.309Z,18.53
2019-05-25T11:28:51.829Z,18.48
2019-05-25T11:31:27.196Z,18.30
2019-05-25T11:34:05.760Z,18.11
2019-05-25T11:36:57.554Z,17.98
2019-05-25T11:39:32.508Z,17.81
2019-05-25T11:42:09.963Z,17.72
2019-05-25T11:44:53.331Z,17.53
2019-05-25T11:47:25.931Z,17.41
2019-05-25T11:49:58.647Z,17.37
2019-05-25T11:52:30.814Z,17.37
2019-05-25T11:55:02.810Z,17.40
2019-05-25T11:57:35.325Z,17.46
2019-05-25T12:00:23.808Z,17.55
2019-05-25T12:02:51.096Z,17.57
2019-05-25T12:05:23.349Z,17.60
2019-05-25T12:07:57.091Z,17.59
2019-05-25T12:10:29.570Z,17.62
2019-05-25T12:13:01.770Z,17.74
2019-05-25T12:15:34.418Z,17.86
2019-05-25T12:18:07.001Z,18.04
2019-05-25T12:20:40.384Z,18.14
2019-05-25T12:23:12.577Z,18.28
2019-05-25T12:25:45.094Z,18.47
2019-05-25T12:28:16.783Z,18.69
2019-05-25T12:30:49.511Z,18.90
2019-05-25T12:33:21.133Z,19.25
2019-05-25T12:35:53.546Z,19.35
2019-05-25T12:38:25.849Z,19.53
2019-05-25T12:40:57.505Z,19.79
2019-05-25T12:43:29.564Z,20.14
2019-05-25T12:46:12.635Z,20.40
2019-05-25T12:48:44.840Z,20.36
2019-05-25T12:51:17.971Z,20.29
2019-05-25T12:53:50.642Z,20.15
2019-05-25T12:56:23.150Z,20.15
2019-05-25T12:58:57.941Z,20.00
2019-05-25T13:01:29.631Z,19.94
2019-05-25T13:04:02.228Z,20.01
2019-05-25T13:06:35.437Z,19.92
2019-05-25T13:09:10.047Z,19.88
2019-05-25T13:11:42.398Z,19.83
2019-05-25T13:14:15.291Z,19.66
2019-05-25T13:16:47.400Z,19.70
2019-05-25T13:19:19.484Z,19.82
2019-05-25T13:21:51.945Z,19.95
2019-05-25T13:24:24.366Z,20.02
2019-05-25T13:26:55.959Z,20.37
2019-05-25T13:29:28.308Z,20.76
2019-05-25T13:32:00.845Z,21.04
2019-05-25T13:34:32.562Z,21.35
2019-05-25T13:37:04.792Z,21.33
2019-05-25T13:39:37.079Z,21.29
2019-05-25T13:42:09.341Z,21.38
2019-05-25T13:44:44.211Z,21.36
2019-05-25T13:47:16.794Z,21.18
2019-05-25T13:49:48.926Z,20.90
2019-05-25T13:52:20.990Z,20.71
2019-05-25T13:54:53.414Z,20.34
2019-05-25T13:57:25.563Z,20.25
2019-05-25T13:59:57.292Z,19.93
2019-05-25T14:02:30.025Z,19.72
2019-05-25T14:05:05.599Z,19.52
2019-05-25T14:07:37.354Z,19.31
2019-05-25T14:10:10.531Z,19.23
2019-05-25T14:12:42.725Z,19.18
2019-05-25T14:15:15.382Z,19.01
2019-05-25T14:17:47.976Z,19.03
2019-05-25T14:20:20.247Z,19.01
2019-05-25T14:22:52.542Z,19.09
2019-05-25T14:25:25.044Z,19.23
2019-05-25T14:27:57.258Z,19.13
2019-05-25T14:30:29.759Z,19.16
2019-05-25T14:33:01.494Z,19.29
2019-05-25T14:35:35.297Z,19.36
2019-05-25T14:38:08.005Z,19.39
2019-05-25T14:40:40.507Z,19.38
2019-05-25T14:43:16.036Z,19.39
2019-05-25T14:45:53.074Z,19.48
2019-05-25T14:48:24.116Z,19.52
2019-05-25T14:50:56.524Z,19.49
2019-05-25T14:53:28.129Z,19.45
2019-05-25T14:56:00.852Z,19.28
2019-05-25T14:58:33.304Z,19.25
2019-05-25T15:01:06.762Z,19.20
2019-05-25T15:03:40.388Z,19.25
2019-05-25T15:06:12.882Z,19.22
2019-05-25T15:08:44.971Z,19.28
2019-05-25T15:11:21.887Z,19.28
2019-05-25T15:13:54.289Z,19.30
2019-05-25T15:16:26.455Z,19.29
2019-05-25T15:18:59.204Z,19.10
2019-05-25T15:21:31.773Z,19.00
2019-05-25T15:24:04.649Z,18.92
2019-05-25T15:26:36.700Z,18.93
2019-05-25T15:29:11.502Z,18.75
2019-05-25T15:31:45.956Z,18.73
2019-05-25T15:34:18.588Z,18.78
2019-05-25T15:36:54.455Z,18.86
2019-05-25T15:39:31.251Z,18.77
2019-05-25T15:42:15.193Z,18.66
2019-05-25T15:44:51.157Z,18.68
2019-05-25T15:47:23.816Z,18.56
2019-05-25T15:50:13.486Z,18.49
2019-05-25T15:52:46.083Z,18.30
2019-05-25T15:55:28.600Z,18.24
2019-05-25T15:58:03.150Z,18.28
2019-05-25T16:00:55.923Z,18.33
2019-05-25T16:03:55.935Z,18.43
2019-05-25T16:06:36.192Z,18.45
2019-05-25T16:09:14.432Z,18.48
2019-05-25T16:11:51.292Z,18.47
2019-05-25T16:14:28.454Z,18.49
2019-05-25T16:17:01.818Z,18.50
2019-05-25T16:20:08.471Z,18.47
2019-05-25T16:23:29.983Z,18.42
2019-05-25T16:25:30.449Z,18.41
2019-05-25T16:28:11.196Z,18.43
2019-05-25T16:30:56.104Z,18.39
2019-05-25T16:33:54.410Z,18.33
2019-05-25T16:40:01.576Z,18.22
2019-05-25T16:43:06.807Z,18.26
2019-05-25T16:50:03.586Z,18.35
2019-05-25T16:56:11.075Z,18.40
2019-05-25T16:59:10.049Z,18.45
2019-05-25T17:02:31.105Z,18.49
2019-05-25T17:04:17.968Z,18.47
2019-05-25T17:06:50.564Z,18.42
2019-05-25T17:09:23.074Z,18.37
2019-05-25T17:11:55.797Z,18.36
2019-05-25T17:14:27.437Z,18.35
2019-05-25T17:16:59.960Z,18.32
2019-05-25T17:19:32.433Z,18.33
2019-05-25T17:22:06.221Z,18.29
2019-05-25T17:24:40.872Z,18.29
2019-05-25T17:27:13.557Z,18.27
2019-05-25T17:29:46.015Z,18.23
2019-05-25T17:32:21.190Z,18.22
2019-05-25T17:34:59.880Z,18.23
2019-05-25T17:37:35.283Z,18.25
2019-05-25T17:40:06.640Z,18.24
2019-05-25T17:42:41.544Z,18.22
2019-05-25T17:45:14.235Z,18.24
2019-05-25T17:47:46.027Z,18.31
2019-05-25T17:50:18.217Z,18.34
2019-05-25T17:52:50.604Z,18.30
2019-05-25T17:55:22.320Z,18.28
2019-05-25T17:57:59.665Z,18.23
2019-05-25T18:00:41.446Z,18.20
2019-05-25T18:03:16.596Z,18.20
2019-05-25T18:05:49.779Z,18.24
2019-05-25T18:08:21.586Z,18.25
2019-05-25T18:10:54.823Z,18.27
2019-05-25T18:13:30.821Z,18.25
2019-05-25T18:16:06.898Z,18.11
2019-05-25T18:18:52.414Z,18.00
2019-05-25T18:21:28.779Z,17.97
2019-05-25T18:24:05.616Z,18.06
2019-05-25T18:26:45.071Z,18.02
2019-05-25T18:29:44.865Z,17.87
2019-05-25T18:32:53.553Z,17.77
2019-05-25T18:35:36.788Z,17.71
2019-05-25T18:38:19.684Z,17.62
2019-05-25T18:41:06.391Z,17.65
2019-05-25T18:43:48.689Z,17.70
2019-05-25T18:46:23.708Z,17.71
2019-05-25T18:48:57.759Z,17.78
2019-05-25T18:51:37.308Z,17.71
2019-05-25T18:54:14.153Z,17.71
2019-05-25T18:56:48.827Z,17.71
2019-05-25T18:59:27.141Z,17.64
2019-05-25T19:02:02.070Z,17.57
2019-05-25T19:04:44.908Z,17.57
2019-05-25T19:07:25.155Z,17.56
2019-05-25T19:09:59.745Z,17.49
2019-05-25T19:12:36.477Z,17.49
2019-05-25T19:15:10.042Z,17.47
2019-05-25T19:17:42.286Z,17.41
2019-05-25T19:20:20.728Z,17.37
2019-05-25T19:22:48.806Z,17.33
2019-05-25T19:25:43.554Z,17.28
2019-05-25T19:28:15.982Z,17.24
2019-05-25T19:30:50.598Z,17.18
2019-05-25T19:33:23.255Z,17.13
2019-05-25T19:35:58.424Z,17.07
2019-05-25T19:38:41.803Z,17.04
2019-05-25T19:41:14.496Z,17.02
2019-05-25T19:43:48.441Z,16.99
2019-05-25T19:46:21.440Z,16.94
2019-05-25T19:49:06.072Z,16.93
2019-05-25T19:51:38.671Z,17.02
2019-05-25T19:54:14.487Z,17.08
2019-05-25T19:56:46.799Z,17.08
2019-05-25T19:59:18.711Z,17.12
2019-05-25T20:01:56.387Z,17.10
2019-05-25T20:04:31.962Z,17.05
2019-05-25T20:07:03.959Z,16.97
2019-05-25T20:09:36.336Z,16.94
2019-05-25T20:12:08.012Z,16.95
2019-05-25T20:14:43.167Z,16.92
2019-05-25T20:17:20.488Z,16.91
2019-05-25T20:19:53.555Z,16.88
2019-05-25T20:22:25.680Z,16.84
2019-05-25T20:24:57.502Z,16.80
2019-05-25T20:27:29.677Z,16.82
2019-05-25T20:30:01.855Z,16.83
2019-05-25T20:32:35.892Z,16.79
2019-05-25T20:35:13.104Z,16.78
2019-05-25T20:37:45.725Z,16.74
2019-05-25T20:40:18.107Z,16.72
2019-05-25T20:42:50.265Z,16.72
2019-05-25T20:45:21.960Z,16.69
2019-05-25T20:47:54.074Z,16.66
2019-05-25T20:50:26.641Z,16.69
2019-05-25T20:52:59.083Z,16.75
2019-05-25T20:55:31.867Z,16.84
2019-05-25T20:58:06.750Z,16.96
2019-05-25T21:00:38.906Z,17.01
2019-05-25T21:03:11.309Z,17.15
2019-05-25T21:05:50.317Z,17.19
2019-05-25T21:08:33.606Z,17.37
2019-05-25T21:11:05.935Z,17.44
2019-05-25T21:13:38.420Z,17.49
2019-05-25T21:16:10.919Z,17.58
2019-05-25T21:18:42.475Z,17.77
2019-05-25T21:21:14.917Z,17.78
2019-05-25T21:23:47.012Z,17.81
2019-05-25T21:26:18.488Z,17.88
2019-05-25T21:28:52.566Z,17.91
2019-05-25T21:31:24.642Z,17.89
2019-05-25T21:33:57.095Z,17.90
2019-05-25T21:36:29.447Z,17.86
2019-05-25T21:39:01.138Z,17.81
2019-05-25T21:41:33.272Z,17.86
2019-05-25T21:44:06.083Z,17.81
2019-05-25T21:46:38.621Z,17.72
2019-05-25T21:49:10.664Z,17.72
2019-05-25T21:51:42.388Z,17.69
2019-05-25T21:54:14.583Z,17.60
2019-05-25T21:56:47.224Z,17.47
2019-05-25T21:59:19.825Z,17.41
2019-05-25T22:01:51.863Z,17.35
2019-05-25T22:04:23.622Z,17.23
2019-05-25T22:06:56.201Z,17.22
2019-05-25T22:09:28.832Z,17.15
2019-05-25T22:12:00.333Z,17.07
2019-05-25T22:14:34.207Z,17.02
2019-05-25T22:17:06.589Z,16.94
2019-05-25T22:19:39.252Z,16.88
2019-05-25T22:22:11.550Z,16.81
2019-05-25T22:24:43.359Z,16.77
2019-05-25T22:27:15.852Z,16.77
2019-05-25T22:29:48.026Z,16.70
2019-05-25T22:32:19.930Z,16.68
2019-05-25T22:34:52.112Z,16.70
2019-05-25T22:37:24.346Z,16.69
2019-05-25T22:39:56.672Z,16.69
2019-05-25T22:42:31.846Z,16.71
2019-05-25T22:45:03.423Z,16.68
2019-05-25T22:47:36.916Z,16.68
2019-05-25T22:50:09.397Z,16.65
2019-05-25T22:52:41.679Z,16.63
2019-05-25T22:55:14.399Z,16.56
2019-05-25T22:57:45.887Z,16.56
2019-05-25T23:00:20.768Z,16.55
2019-05-25T23:02:53.302Z,16.50
2019-05-25T23:05:25.475Z,16.51
2019-05-25T23:07:57.781Z,16.56
2019-05-25T23:10:29.745Z,16.60
2019-05-25T23:13:02.159Z,16.55
2019-05-25T23:15:34.559Z,16.63
2019-05-25T23:18:06.086Z,16.67
2019-05-25T23:20:38.795Z,16.71
2019-05-25T23:23:10.800Z,16.98
2019-05-25T23:25:43.257Z,17.04
2019-05-25T23:28:15.573Z,17.18
2019-05-25T23:30:47.071Z,17.40
2019-05-25T23:33:19.528Z,17.39
2019-05-25T23:35:51.451Z,17.31
2019-05-25T23:38:23.872Z,17.16
2019-05-25T23:40:55.891Z,17.00
2019-05-25T23:43:27.355Z,16.86
2019-05-25T23:45:59.371Z,16.75
2019-05-25T23:48:31.603Z,16.67
2019-05-25T23:51:03.984Z,16.59
2019-05-25T23:53:36.321Z,16.58
2019-05-25T23:56:07.854Z,16.61
2019-05-25T23:58:40.152Z,16.59
